04:58
Airports
History
Links
Donate
Help keep this website running!
PayPal
Bitcoin
This page is community maintained. The information is intended for PC simulator navigation or reference.
Always use approved charts for navigation.
64GA
Big T
Big T (64GA)
Senoia, Georgia, United States (30276)
4
Lat/Lng:33° 17' 0.43" N / 84° 32' 19.74" W
33.283453 / -84.538816
Elevation:900'ft / 274mMSL
ID / ICAO:64GA
Runways:1
Longest:16-34
Grass 628m / 2,059ft
Nearby Weather04:53 GMT 2018-01-21
Nearby weather at KFFC, Atlanta Rgnl Falcon Field located 5.4 nautical miles from 64GA
Altimeter: 30.25
Visibility: 10.0 statute miles
Wind: 0 knots (from 000°)
Temp: 2°c / 36°f
Humidity: 93.1%

METAR: KFFC 210453Z AUTO 00000KT 10SM CLR 02/01 A3025 RMK AO2 SLP248 T00220006 401671044

(Powered by phpweather)
Nearby VORs <50NM
Nearby NDBs
Runway 16 / 34
Dimensions:627.6 x 45.7m 2059' x 150'ft
Surface:Grass
Runway 16 [A]Runway 34 [B]
Heading:158°TH 338°TH
Lat:
Lng:
33° 17' 9.88"N
84° 32' 24.08"W
33° 16' 50.98"N
84° 32' 15.4"W
User Notes and Comments
33° 17' 0.43" N / 84° 32' 19.74" W
Distance To
Airport ID:
Nearby Airports
(R) Kenley Field 2.6 NM
GA61 ESE 112°
(R) Gable Branch 3.9 NM
5GA0 S 184°
(U) Atlanta Rgnl Falcon Field 5.4 NM
KFFC ( WX ) NNW 339°
(R) Fagundes Field 6.4 NM
6GA1 SSW 204°
(R) Brook Bridge Aerodrome 7.4 NM
8GA9 E 93°
(R) Cedar Ridge 8.2 NM
GA62 ESE 103°
(R) Johnson 8.4 NM
74GA WSW 241°
VFR Chart
Flight Planning at SkyVector.com